Time;durP1;ratioP1;P1;durP2;ratioP2;P2;SDS_P1;SDS_P2;PMS_P1;PMS_P2;Temp;Humidity;BMP_temperature;BMP_pressure;BME280_temperature;BME280_humidity;BME280_pressure;Samples;Min_cycle;Max_cycle;Signal;HPM_P1;HPM_P2
2022/06/28 00:01:41;;;;;;;25.15;6.35;;;27.80;96.70;;;;;;4935852;29;20047;-85
2022/06/28 00:04:11;;;;;;;15.90;5.57;;;27.80;96.70;;;;;;4937048;29;20893;-86
2022/06/28 00:06:40;;;;;;;16.45;5.85;;;27.70;96.70;;;;;;4945897;29;20039;-86
2022/06/28 00:09:08;;;;;;;17.88;5.90;;;27.80;96.70;;;;;;4948593;28;20661;-85
2022/06/28 00:11:38;;;;;;;17.65;5.43;;;27.80;96.70;;;;;;4955317;29;20057;-83
2022/06/28 00:16:04;;;;;;;27.33;6.57;;;27.70;96.70;;;;;;4951899;29;20047;-83
2022/06/28 00:16:57;;;;;;;21.10;5.45;;;27.70;96.70;;;;;;4958859;28;20135;-82
2022/06/28 00:19:26;;;;;;;18.70;5.90;;;27.60;96.70;;;;;;4960700;29;20045;-83
2022/06/28 00:21:55;;;;;;;26.60;6.93;;;27.60;96.70;;;;;;4960310;29;20039;-83
2022/06/28 00:24:24;;;;;;;25.00;5.97;;;27.70;96.70;;;;;;4954639;29;20035;-84
2022/06/28 00:26:53;;;;;;;19.25;5.93;;;27.60;96.70;;;;;;4959008;29;20047;-85
2022/06/28 00:29:22;;;;;;;22.25;6.32;;;27.50;96.70;;;;;;4959403;28;20097;-84
2022/06/28 00:31:50;;;;;;;24.58;7.93;;;27.40;96.70;;;;;;4934106;29;20089;-85
2022/06/28 00:34:19;;;;;;;19.45;5.70;;;27.50;96.70;;;;;;4934154;29;20055;-85
2022/06/28 00:36:47;;;;;;;21.55;6.07;;;27.40;96.70;;;;;;4942362;28;20145;-85
2022/06/28 00:39:16;;;;;;;17.73;5.85;;;27.40;96.70;;;;;;4929762;29;20043;-85
2022/06/28 00:41:45;;;;;;;21.90;6.38;;;27.40;96.70;;;;;;4933656;29;20053;-86
2022/06/28 00:44:15;;;;;;;19.27;6.47;;;27.40;96.70;;;;;;4947189;28;20114;-85
2022/06/28 00:46:44;;;;;;;19.38;5.55;;;27.30;96.70;;;;;;4941126;29;20047;-85
2022/06/28 00:49:14;;;;;;;17.02;5.85;;;27.30;96.70;;;;;;4925992;29;20138;-80
2022/06/28 00:51:43;;;;;;;18.95;5.88;;;27.30;96.70;;;;;;4947981;29;20167;-86
2022/06/28 00:54:13;;;;;;;19.65;5.95;;;27.30;96.70;;;;;;4929859;29;20047;-85
2022/06/28 00:56:41;;;;;;;19.85;6.18;;;27.30;96.70;;;;;;4939481;29;20246;-83
2022/06/28 00:59:10;;;;;;;21.65;5.68;;;27.20;96.70;;;;;;4945722;29;20051;-85
2022/06/28 01:01:40;;;;;;;24.63;6.22;;;27.20;96.70;;;;;;4933725;29;20043;-86
2022/06/28 01:04:10;;;;;;;20.70;5.47;;;27.20;96.70;;;;;;4920900;29;20147;-84
2022/06/28 01:06:39;;;;;;;18.83;5.55;;;27.20;96.70;;;;;;4947417;29;20141;-85
2022/06/28 01:09:09;;;;;;;15.43;4.88;;;27.20;96.70;;;;;;4926614;29;20058;-85
2022/06/28 01:11:37;;;;;;;21.05;6.18;;;27.00;96.70;;;;;;4948589;29;20094;-84
2022/06/28 01:14:07;;;;;;;15.50;5.57;;;26.90;96.70;;;;;;4932794;29;20397;-84
2022/06/28 01:17:00;;;;;;;22.63;5.93;;;26.80;96.70;;;;;;4940935;29;20158;-84
2022/06/28 01:19:57;;;;;;;20.30;5.93;;;26.80;96.70;;;;;;4937169;28;20055;-84
2022/06/28 01:22:54;;;;;;;22.58;6.35;;;26.90;96.70;;;;;;4952450;29;20055;-85
2022/06/28 01:25:24;;;;;;;23.55;6.32;;;27.00;96.70;;;;;;4947727;29;20052;-80
2022/06/28 01:27:54;;;;;;;18.33;6.20;;;27.10;96.70;;;;;;4941683;28;20135;-80
2022/06/28 01:30:23;;;;;;;19.38;6.53;;;27.00;96.70;;;;;;4939897;29;20043;-79
2022/06/28 01:33:05;;;;;;;20.98;5.88;;;27.00;96.70;;;;;;4945455;29;20058;-81
2022/06/28 01:35:34;;;;;;;22.95;6.50;;;27.00;96.70;;;;;;4923850;29;20067;-81
2022/06/28 01:38:05;;;;;;;19.50;7.13;;;27.00;96.70;;;;;;4923892;29;20043;-80
2022/06/28 01:40:34;;;;;;;19.48;5.70;;;27.00;96.70;;;;;;4926095;29;20099;-82
2022/06/28 01:43:02;;;;;;;21.45;5.88;;;26.90;96.70;;;;;;4929783;29;20145;-82
2022/06/28 01:45:36;;;;;;;21.23;6.03;;;26.90;96.70;;;;;;4924402;29;20509;-81
2022/06/28 01:48:05;;;;;;;16.60;5.53;;;26.90;96.70;;;;;;4948311;29;20043;-81
2022/06/28 01:50:55;;;;;;;23.27;6.13;;;26.90;96.70;;;;;;4927056;29;20059;-81
2022/06/28 01:53:25;;;;;;;18.20;6.07;;;26.80;96.70;;;;;;4945681;29;20542;-79
2022/06/28 01:55:59;;;;;;;;;;;26.70;96.70;;;;;;4944939;29;20101;-79
2022/06/28 01:58:55;;;;;;;19.25;5.90;;;26.80;96.70;;;;;;4943281;29;19932;-81
2022/06/28 02:01:27;;;;;;;19.80;5.70;;;26.80;96.70;;;;;;4939175;29;20403;-80
2022/06/28 02:03:56;;;;;;;14.63;5.90;;;26.80;96.70;;;;;;4927229;29;20056;-80
2022/06/28 02:06:39;;;;;;;20.48;5.65;;;26.70;96.70;;;;;;4943275;29;20059;-80
2022/06/28 02:09:12;;;;;;;17.95;5.72;;;26.40;96.70;;;;;;4941442;29;20062;-80
2022/06/28 02:11:45;;;;;;;23.85;6.82;;;26.30;96.70;;;;;;4938275;29;20055;-80
2022/06/28 02:14:16;;;;;;;16.67;6.32;;;26.30;96.70;;;;;;4932412;29;20047;-80
2022/06/28 02:16:45;;;;;;;20.27;6.22;;;26.30;96.70;;;;;;4944479;28;20050;-81
2022/06/28 02:19:14;;;;;;;21.65;5.63;;;26.20;96.70;;;;;;4940713;29;20847;-80
2022/06/28 02:21:44;;;;;;;17.65;6.85;;;26.10;96.70;;;;;;4946231;28;20078;-81
2022/06/28 02:24:14;;;;;;;21.00;6.22;;;26.10;96.70;;;;;;4930007;29;20087;-80
2022/06/28 02:26:42;;;;;;;18.88;6.00;;;26.10;96.70;;;;;;4941695;28;20058;-80
2022/06/28 02:29:10;;;;;;;25.13;7.13;;;26.10;96.70;;;;;;4944950;29;20051;-81
2022/06/28 02:31:39;;;;;;;15.75;5.80;;;26.10;96.70;;;;;;4940966;28;20044;-80
2022/06/28 02:34:07;;;;;;;17.52;6.00;;;26.10;96.70;;;;;;4923589;29;20111;-80
2022/06/28 02:42:20;;;;;;;18.80;5.90;;;26.20;96.70;;;;;;4922647;29;20054;-85
2022/06/28 02:44:52;;;;;;;17.52;6.00;;;26.20;96.70;;;;;;4945828;29;20043;-81
2022/06/28 02:47:20;;;;;;;17.73;6.10;;;26.20;96.70;;;;;;4955978;28;20047;-79
2022/06/28 02:49:48;;;;;;;22.05;6.53;;;26.10;96.70;;;;;;4942244;29;20047;-81
2022/06/28 02:52:16;;;;;;;19.00;5.68;;;26.00;96.70;;;;;;4954604;28;20057;-81
2022/06/28 02:54:46;;;;;;;19.77;6.15;;;26.00;96.70;;;;;;4944504;28;20134;-80
2022/06/28 02:57:14;;;;;;;24.13;6.15;;;26.00;96.70;;;;;;4946694;29;20054;-79
2022/06/28 02:59:42;;;;;;;18.92;5.95;;;25.90;96.70;;;;;;4930017;29;20055;-79
2022/06/28 03:02:10;;;;;;;24.42;6.32;;;25.90;96.70;;;;;;4924210;29;20071;-81
2022/06/28 03:04:38;;;;;;;18.35;5.70;;;25.90;96.70;;;;;;4939091;29;20080;-81
2022/06/28 03:07:06;;;;;;;23.33;5.95;;;25.90;96.70;;;;;;4940228;29;20050;-80
2022/06/28 03:09:35;;;;;;;17.20;5.40;;;25.90;96.70;;;;;;4944990;29;20223;-79
2022/06/28 03:12:06;;;;;;;22.25;6.15;;;25.80;96.70;;;;;;4942537;28;20043;-81
2022/06/28 03:14:35;;;;;;;20.88;5.95;;;25.80;96.70;;;;;;4940418;29;20051;-80
2022/06/28 03:17:03;;;;;;;25.67;6.22;;;25.60;96.70;;;;;;4941579;29;20123;-81
2022/06/28 03:19:32;;;;;;;18.88;6.35;;;25.60;96.70;;;;;;4922410;29;20051;-81
2022/06/28 03:22:00;;;;;;;23.88;6.07;;;25.60;96.70;;;;;;4940299;29;20047;-81
2022/06/28 03:24:28;;;;;;;18.75;6.13;;;25.70;96.70;;;;;;4926705;29;20486;-79
2022/06/28 03:26:56;;;;;;;21.30;6.32;;;25.80;96.70;;;;;;4924786;29;20134;-81
2022/06/28 03:29:26;;;;;;;22.13;6.20;;;25.80;96.70;;;;;;4937417;29;20062;-80
2022/06/28 03:31:55;;;;;;;21.15;6.82;;;25.90;96.70;;;;;;4960263;28;20051;-80
2022/06/28 03:34:23;;;;;;;19.65;6.47;;;25.90;96.70;;;;;;4938672;29;20421;-79
2022/06/28 03:36:52;;;;;;;18.83;5.80;;;26.10;96.70;;;;;;4943959;28;20039;-80
2022/06/28 03:39:40;;;;;;;25.25;6.50;;;26.10;96.70;;;;;;4921906;29;20050;-79
2022/06/28 03:42:09;;;;;;;23.55;5.90;;;25.90;96.70;;;;;;4935559;28;20707;-80
2022/06/28 03:44:41;;;;;;;25.42;6.20;;;25.90;96.70;;;;;;4924578;29;20083;-81
2022/06/28 03:47:09;;;;;;;20.05;6.47;;;25.90;96.70;;;;;;4929822;29;20051;-79
2022/06/28 03:50:09;;;;;;;21.85;5.63;;;26.00;96.70;;;;;;4918638;28;20059;-79
2022/06/28 03:52:49;;;;;;;22.95;6.15;;;26.10;96.70;;;;;;4939689;28;20059;-80
2022/06/28 03:55:35;;;;;;;21.88;5.40;;;26.00;96.70;;;;;;4953646;28;20063;-79
2022/06/28 03:58:05;;;;;;;19.88;5.78;;;26.10;96.70;;;;;;4941130;29;20047;-81
2022/06/28 04:00:34;;;;;;;18.33;6.03;;;26.10;96.70;;;;;;4931128;29;20649;-81
2022/06/28 04:03:03;;;;;;;22.92;5.50;;;26.10;96.70;;;;;;4926764;29;20059;-80
2022/06/28 04:05:42;;;;;;;22.58;6.55;;;26.00;96.70;;;;;;4926652;29;20051;-81
2022/06/28 04:08:10;;;;;;;16.77;5.30;;;26.00;96.70;;;;;;4924994;29;20071;-81
2022/06/28 04:10:45;;;;;;;20.05;5.95;;;26.00;96.70;;;;;;4959732;28;20053;-81
2022/06/28 04:13:18;;;;;;;24.08;6.80;;;26.10;96.70;;;;;;4939480;29;20477;-82
2022/06/28 04:15:48;;;;;;;16.90;5.55;;;26.10;96.70;;;;;;4932657;28;20066;-82
2022/06/28 04:18:21;;;;;;;24.50;6.32;;;26.00;96.70;;;;;;4936911;29;20106;-82
2022/06/28 04:20:58;;;;;;;22.05;6.65;;;26.00;96.70;;;;;;4941669;28;20051;-81
2022/06/28 04:23:28;;;;;;;17.13;5.43;;;25.80;96.70;;;;;;4931130;29;20055;-81
2022/06/28 04:25:56;;;;;;;19.98;6.28;;;25.70;96.70;;;;;;4918633;29;20065;-82
2022/06/28 04:28:38;;;;;;;21.23;5.97;;;25.80;96.70;;;;;;4940468;29;20051;-81
2022/06/28 04:31:13;;;;;;;23.38;6.72;;;25.70;96.70;;;;;;4944164;29;20130;-82
2022/06/28 04:33:41;;;;;;;28.20;6.35;;;25.60;96.70;;;;;;4929280;29;20047;-82
2022/06/28 04:36:11;;;;;;;18.98;6.30;;;25.70;96.70;;;;;;4941651;29;20058;-82
2022/06/28 04:38:44;;;;;;;21.65;7.25;;;25.80;96.70;;;;;;4931900;29;20083;-82
2022/06/28 04:41:17;;;;;;;22.80;6.53;;;25.90;96.70;;;;;;4922379;29;20154;-82
2022/06/28 04:43:56;;;;;;;22.70;6.15;;;25.70;96.70;;;;;;4958483;28;20141;-81
2022/06/28 04:46:32;;;;;;;23.77;7.30;;;25.70;96.70;;;;;;4925918;29;20071;-81
2022/06/28 04:49:12;;;;;;;28.08;7.35;;;25.80;96.70;;;;;;4937460;28;20056;-82
2022/06/28 04:51:42;;;;;;;21.42;6.40;;;26.00;96.70;;;;;;4943764;29;20051;-82
2022/06/28 04:54:15;;;;;;;18.38;6.50;;;26.00;96.70;;;;;;4929754;29;20054;-82
2022/06/28 04:57:09;;;;;;;22.92;6.70;;;26.10;96.70;;;;;;4934990;29;20421;-82
2022/06/28 04:59:38;;;;;;;25.85;7.13;;;26.20;96.70;;;;;;4945200;29;20067;-82
2022/06/28 05:02:17;;;;;;;18.73;6.10;;;26.30;96.70;;;;;;4940601;29;20534;-80
2022/06/28 05:04:46;;;;;;;19.92;6.40;;;26.40;96.70;;;;;;4943256;29;20506;-79
2022/06/28 05:07:22;;;;;;;21.45;6.70;;;26.50;96.70;;;;;;4942899;29;20047;-81
2022/06/28 05:09:50;;;;;;;24.27;6.28;;;26.60;96.70;;;;;;4944600;29;20047;-81
2022/06/28 05:12:18;;;;;;;23.75;5.85;;;26.60;96.70;;;;;;4948563;29;20051;-81
2022/06/28 05:14:50;;;;;;;20.30;5.63;;;26.50;96.70;;;;;;4948842;29;20055;-80
2022/06/28 05:17:24;;;;;;;27.92;6.32;;;26.60;96.70;;;;;;4954537;28;20404;-81
2022/06/28 05:19:52;;;;;;;28.38;5.80;;;26.50;96.70;;;;;;4947201;29;20501;-81
2022/06/28 05:22:20;;;;;;;29.38;6.57;;;26.60;96.70;;;;;;4948815;29;20044;-81
2022/06/28 05:25:17;;;;;;;22.02;6.47;;;26.60;96.70;;;;;;4902195;29;20052;-81
2022/06/28 05:27:45;;;;;;;27.15;6.65;;;26.60;96.70;;;;;;4931965;29;20143;-81
2022/06/28 05:30:13;;;;;;;20.05;5.88;;;26.70;96.70;;;;;;4932127;29;20485;-82
2022/06/28 05:32:43;;;;;;;21.25;6.50;;;26.80;96.70;;;;;;4950237;28;20050;-81
2022/06/28 05:35:11;;;;;;;21.55;5.85;;;26.80;96.70;;;;;;4941933;29;20095;-82
2022/06/28 05:37:39;;;;;;;23.73;6.10;;;26.70;96.70;;;;;;4927467;29;20408;-81
2022/06/28 05:40:09;;;;;;;26.38;6.60;;;26.60;96.70;;;;;;4943831;29;20155;-79
2022/06/28 05:42:37;;;;;;;20.98;5.88;;;26.50;96.70;;;;;;4940090;29;20081;-79
2022/06/28 05:45:06;;;;;;;22.35;5.78;;;26.40;96.70;;;;;;4930622;29;20507;-81
2022/06/28 05:47:34;;;;;;;22.20;6.45;;;26.50;96.70;;;;;;4933910;29;20047;-80
2022/06/28 05:50:04;;;;;;;18.85;6.78;;;26.60;96.70;;;;;;4925834;29;20063;-80
2022/06/28 05:52:32;;;;;;;20.48;5.50;;;26.60;96.70;;;;;;4942840;29;20051;-80
2022/06/28 05:55:00;;;;;;;20.65;5.28;;;26.60;96.70;;;;;;4937523;29;20501;-81
2022/06/28 05:57:29;;;;;;;24.15;6.43;;;26.80;96.70;;;;;;4946671;29;20055;-80
2022/06/28 05:59:57;;;;;;;26.90;6.55;;;26.80;96.70;;;;;;4923087;29;20056;-81
2022/06/28 06:02:25;;;;;;;28.48;6.53;;;26.90;96.70;;;;;;4947650;28;20062;-81
2022/06/28 06:04:54;;;;;;;25.98;7.85;;;26.80;96.70;;;;;;4942710;29;20047;-80
2022/06/28 06:07:24;;;;;;;21.65;6.00;;;26.60;96.70;;;;;;4952943;28;20138;-83
2022/06/28 06:09:52;;;;;;;21.80;6.50;;;26.40;96.70;;;;;;4926908;29;20048;-83
2022/06/28 06:12:21;;;;;;;22.50;5.85;;;26.40;96.70;;;;;;4957176;29;20126;-83
2022/06/28 06:14:49;;;;;;;23.63;6.00;;;26.50;96.70;;;;;;4934861;29;20062;-83
2022/06/28 06:17:17;;;;;;;21.08;6.05;;;26.60;96.70;;;;;;4934514;29;20061;-83
2022/06/28 06:19:45;;;;;;;27.73;6.57;;;26.70;96.70;;;;;;4935583;29;20458;-83
2022/06/28 06:22:13;;;;;;;21.80;6.07;;;26.80;96.70;;;;;;4950631;29;20043;-83
2022/06/28 06:24:43;;;;;;;23.90;6.50;;;26.80;96.70;;;;;;4951022;29;20040;-83
2022/06/28 06:27:22;;;;;;;20.13;6.10;;;26.80;96.70;;;;;;4952213;29;20073;-83
2022/06/28 06:29:51;;;;;;;20.13;5.88;;;26.80;96.70;;;;;;4950801;29;20039;-84
2022/06/28 06:32:28;;;;;;;25.70;5.82;;;26.80;96.70;;;;;;4950645;29;20055;-83
2022/06/28 06:35:14;;;;;;;20.60;5.50;;;26.80;96.70;;;;;;4950926;29;20090;-84
2022/06/28 06:37:42;;;;;;;22.33;6.68;;;26.80;96.70;;;;;;4947896;29;20052;-84
2022/06/28 06:40:12;;;;;;;23.05;6.20;;;26.90;96.70;;;;;;4931871;29;20081;-86
2022/06/28 06:42:41;;;;;;;23.67;5.93;;;26.90;96.70;;;;;;4953286;28;20147;-86
2022/06/28 06:45:14;;;;;;;20.40;6.28;;;27.00;96.70;;;;;;4927475;29;20133;-85
2022/06/28 06:47:42;;;;;;;21.30;6.22;;;26.90;96.70;;;;;;4945702;29;20051;-84
2022/06/28 06:50:10;;;;;;;28.30;6.53;;;27.00;96.70;;;;;;4956872;28;20518;-81
2022/06/28 06:52:39;;;;;;;27.85;6.50;;;26.90;96.70;;;;;;4929909;29;20048;-82
2022/06/28 06:55:08;;;;;;;24.13;6.25;;;26.90;96.70;;;;;;4945440;29;20066;-83
2022/06/28 06:57:39;;;;;;;29.02;6.22;;;26.80;96.70;;;;;;4956596;28;20513;-83
2022/06/28 07:00:09;;;;;;;29.08;7.32;;;26.80;96.70;;;;;;4926362;29;20051;-80
2022/06/28 07:02:40;;;;;;;22.88;6.90;;;26.70;96.70;;;;;;4939045;29;20051;-80
2022/06/28 07:05:09;;;;;;;28.45;7.93;;;26.70;96.70;;;;;;4944266;29;20039;-80
2022/06/28 07:07:39;;;;;;;30.92;6.95;;;26.70;96.70;;;;;;4943437;28;20628;-78
2022/06/28 07:10:07;;;;;;;24.55;6.18;;;26.70;96.70;;;;;;4939998;29;20163;-79
2022/06/28 07:12:35;;;;;;;23.23;6.90;;;26.60;96.70;;;;;;4929154;28;20209;-81
2022/06/28 07:15:07;;;;;;;23.00;6.53;;;26.40;96.70;;;;;;4932096;29;20506;-81
2022/06/28 07:17:38;;;;;;;21.13;6.75;;;26.30;96.70;;;;;;4936036;28;20055;-82
2022/06/28 07:20:07;;;;;;;23.35;6.97;;;26.40;96.70;;;;;;4928068;29;20050;-81
2022/06/28 07:22:35;;;;;;;30.05;7.00;;;26.50;96.70;;;;;;4947350;29;20406;-83
2022/06/28 07:25:05;;;;;;;18.67;6.03;;;26.60;96.70;;;;;;4934237;29;20166;-86
2022/06/28 07:27:33;;;;;;;24.65;5.53;;;26.60;96.70;;;;;;4949698;29;20066;-86
2022/06/28 07:30:01;;;;;;;81.45;48.13;;;26.70;96.70;;;;;;4941125;29;20510;-84
2022/06/28 07:32:30;;;;;;;144.15;83.97;;;26.70;96.70;;;;;;4917868;29;20055;-85
2022/06/28 07:34:58;;;;;;;81.13;43.35;;;26.80;96.70;;;;;;4940656;29;20058;-82
2022/06/28 07:37:27;;;;;;;30.20;12.68;;;26.90;96.70;;;;;;4922532;29;20058;-82
2022/06/28 07:39:57;;;;;;;24.38;7.30;;;26.90;96.70;;;;;;4928383;29;20058;-81
2022/06/28 07:42:32;;;;;;;34.85;7.65;;;27.00;96.70;;;;;;4946203;28;20051;-80
2022/06/28 07:45:19;;;;;;;41.33;21.27;;;27.10;96.70;;;;;;4943389;29;20179;-76
2022/06/28 07:47:53;;;;;;;31.58;11.23;;;27.10;96.70;;;;;;4922796;29;20055;-77
2022/06/28 07:53:15;;;;;;;21.17;6.93;;;27.40;96.70;;;;;;4939736;29;20115;-77
2022/06/28 07:56:02;;;;;;;33.55;8.18;;;27.60;96.70;;;;;;4939878;28;20591;-76
2022/06/28 07:58:33;;;;;;;26.83;7.90;;;27.70;96.70;;;;;;4943551;29;20543;-77
2022/06/28 08:01:05;;;;;;;33.15;7.68;;;27.80;96.70;;;;;;4933838;29;20059;-81
2022/06/28 08:03:35;;;;;;;26.77;6.13;;;28.00;96.70;;;;;;4940261;29;20055;-80
2022/06/28 08:06:04;;;;;;;21.48;6.75;;;28.00;96.70;;;;;;4946959;29;20082;-83
2022/06/28 08:08:42;;;;;;;29.45;7.13;;;28.10;96.70;;;;;;4946406;29;20044;-82
2022/06/28 08:11:13;;;;;;;35.60;7.63;;;28.30;96.70;;;;;;4931407;29;20583;-83
2022/06/28 08:13:42;;;;;;;34.90;7.40;;;28.40;96.70;;;;;;4937544;29;20055;-86
2022/06/28 08:16:10;;;;;;;33.38;6.72;;;28.50;96.70;;;;;;4925596;29;20050;-81
2022/06/28 08:18:40;;;;;;;35.90;7.57;;;28.70;96.70;;;;;;4925698;29;20044;-80
2022/06/28 08:21:09;;;;;;;27.65;6.25;;;28.80;96.70;;;;;;4942088;28;20544;-80
2022/06/28 08:23:38;;;;;;;28.67;7.00;;;29.00;96.70;;;;;;4928405;29;20047;-80
2022/06/28 08:26:06;;;;;;;28.13;7.15;;;29.20;96.70;;;;;;4943402;28;20545;-80
2022/06/28 08:28:34;;;;;;;27.60;6.63;;;29.40;96.70;;;;;;4925732;29;20060;-79
2022/06/28 08:31:08;;;;;;;24.30;6.55;;;29.70;96.70;;;;;;4935244;29;20039;-80
2022/06/28 08:33:36;;;;;;;23.00;5.50;;;29.90;96.70;;;;;;4936930;29;20056;-76
2022/06/28 08:36:07;;;;;;;26.45;6.22;;;30.00;96.70;;;;;;4936848;29;20053;-77
2022/06/28 08:38:36;;;;;;;33.03;6.97;;;30.10;96.70;;;;;;4936543;28;20509;-78
2022/06/28 08:41:06;;;;;;;25.25;6.00;;;30.10;96.70;;;;;;4917941;29;20134;-77
2022/06/28 08:43:35;;;;;;;23.63;6.28;;;30.10;96.70;;;;;;4937575;29;20710;-80
2022/06/28 08:46:04;;;;;;;30.27;7.10;;;30.00;96.70;;;;;;4940907;29;20538;-82
2022/06/28 08:48:39;;;;;;;23.70;6.63;;;30.00;96.70;;;;;;4946001;29;20052;-83
2022/06/28 08:51:10;;;;;;;23.80;5.63;;;30.00;96.70;;;;;;4931815;29;20059;-82
2022/06/28 08:53:40;;;;;;;29.05;6.63;;;30.00;96.70;;;;;;4949236;28;20398;-80
2022/06/28 08:56:10;;;;;;;32.15;6.53;;;30.10;96.70;;;;;;4935353;29;20044;-82
2022/06/28 08:58:42;;;;;;;23.20;7.00;;;30.10;96.70;;;;;;4925088;29;20047;-81
2022/06/28 09:01:11;;;;;;;22.77;7.15;;;30.00;96.70;;;;;;4929997;29;20139;-81
2022/06/28 09:03:40;;;;;;;28.63;7.28;;;30.00;96.70;;;;;;4942930;28;20047;-79
2022/06/28 09:06:10;;;;;;;25.08;6.65;;;30.00;96.70;;;;;;4942702;29;20043;-84
2022/06/28 09:08:40;;;;;;;24.42;6.72;;;30.10;96.70;;;;;;4939505;29;20532;-81
2022/06/28 09:11:08;;;;;;;26.00;7.55;;;30.20;96.70;;;;;;4924593;29;20062;-82
2022/06/28 09:13:37;;;;;;;27.08;6.60;;;30.20;96.70;;;;;;4945980;29;20523;-81
2022/06/28 09:16:05;;;;;;;23.17;6.60;;;30.20;96.70;;;;;;4944494;29;20513;-81
2022/06/28 09:18:45;;;;;;;31.70;6.72;;;30.20;96.70;;;;;;4946035;28;20414;-82
2022/06/28 09:21:20;;;;;;;23.90;6.18;;;30.20;96.70;;;;;;4925887;29;20081;-82
2022/06/28 09:23:49;;;;;;;23.98;5.93;;;30.10;96.70;;;;;;4938995;29;20051;-82
2022/06/28 09:26:20;;;;;;;20.00;5.93;;;30.10;96.70;;;;;;4943944;29;20643;-85
2022/06/28 09:28:50;;;;;;;24.05;6.10;;;30.00;96.70;;;;;;4935418;29;20051;-78
2022/06/28 09:31:21;;;;;;;21.35;6.15;;;29.90;96.70;;;;;;4933404;29;20147;-79
2022/06/28 09:34:04;;;;;;;29.23;6.47;;;29.80;96.70;;;;;;4924299;29;20410;-76
2022/06/28 09:36:35;;;;;;;24.95;6.28;;;29.60;96.70;;;;;;4932318;28;20585;-75
2022/06/28 09:39:11;;;;;;;30.48;6.80;;;29.50;96.70;;;;;;4935000;29;20051;-78
2022/06/28 09:41:43;;;;;;;23.35;6.25;;;29.30;96.70;;;;;;4940568;28;20099;-79
2022/06/28 09:44:31;;;;;;;21.63;5.60;;;29.30;96.70;;;;;;4941312;29;20115;-77
2022/06/28 09:46:59;;;;;;;27.25;6.13;;;29.30;96.70;;;;;;4940527;28;20047;-77
2022/06/28 09:49:29;;;;;;;21.13;6.80;;;29.30;96.70;;;;;;4927272;28;20062;-76
2022/06/28 09:52:00;;;;;;;23.92;6.93;;;29.40;96.70;;;;;;4919924;29;20137;-77
2022/06/28 09:54:29;;;;;;;29.20;7.05;;;29.40;96.70;;;;;;4935341;29;20135;-78
2022/06/28 09:56:58;;;;;;;30.40;6.53;;;29.40;96.70;;;;;;4943380;29;20135;-78
2022/06/28 09:59:28;;;;;;;24.35;6.55;;;29.40;96.70;;;;;;4945138;29;20075;-77
2022/06/28 10:01:57;;;;;;;27.58;7.00;;;29.30;96.70;;;;;;4938050;29;20086;-76
2022/06/28 10:04:27;;;;;;;18.80;6.35;;;29.30;96.70;;;;;;4945434;28;20506;-79
2022/06/28 10:06:56;;;;;;;32.55;6.75;;;29.20;96.70;;;;;;4935088;29;20066;-77
2022/06/28 10:09:25;;;;;;;23.33;5.72;;;29.20;96.70;;;;;;4941987;29;20052;-78
2022/06/28 10:17:44;;;;;;;31.77;6.95;;;29.10;96.70;;;;;;4940320;29;20054;-78
2022/06/28 10:20:16;;;;;;;29.73;6.47;;;29.10;96.70;;;;;;4941532;28;20110;-79
2022/06/28 10:22:45;;;;;;;29.15;6.57;;;29.10;96.70;;;;;;4942990;29;20055;-78
2022/06/28 10:25:18;;;;;;;24.67;6.57;;;29.00;96.70;;;;;;4917679;29;20641;-79
2022/06/28 10:27:48;;;;;;;28.90;6.50;;;28.90;96.70;;;;;;4927843;29;20059;-78
2022/06/28 10:30:35;;;;;;;27.35;7.28;;;28.90;96.70;;;;;;4936781;29;20044;-78
2022/06/28 10:33:03;;;;;;;;;;;28.90;96.70;;;;;;4943865;28;20051;-77
2022/06/28 10:35:58;;;;;;;23.77;6.22;;;28.90;96.70;;;;;;4945752;29;20292;-78
2022/06/28 10:38:27;;;;;;;24.00;6.28;;;28.90;96.70;;;;;;4936233;29;20064;-78
2022/06/28 10:41:13;;;;;;;27.20;6.43;;;28.80;96.70;;;;;;4939694;29;20052;-77
2022/06/28 10:43:48;;;;;;;22.77;6.07;;;28.80;96.70;;;;;;4936001;29;20526;-78
2022/06/28 10:46:17;;;;;;;23.77;6.97;;;28.70;96.70;;;;;;4941167;29;20047;-76
2022/06/28 10:49:07;;;;;;;27.70;6.90;;;28.70;96.70;;;;;;4934689;28;20051;-78
2022/06/28 10:51:40;;;;;;;31.48;7.22;;;28.60;96.70;;;;;;4938790;29;20446;-78
2022/06/28 10:54:10;;;;;;;24.67;6.93;;;28.60;96.70;;;;;;4939327;29;20074;-78
2022/06/28 10:56:43;;;;;;;30.35;5.90;;;28.40;96.70;;;;;;4941333;29;20055;-78
2022/06/28 10:59:13;;;;;;;28.40;6.57;;;28.40;96.70;;;;;;4936417;29;20113;-78
2022/06/28 11:01:56;;;;;;;24.70;7.38;;;28.30;96.70;;;;;;4943541;28;20449;-80
2022/06/28 11:04:27;;;;;;;20.70;6.32;;;28.20;96.70;;;;;;4958772;28;20628;-78
2022/06/28 11:06:59;;;;;;;21.10;6.30;;;28.20;96.70;;;;;;4922745;29;20075;-78
2022/06/28 11:09:47;;;;;;;21.70;6.65;;;28.10;96.70;;;;;;4934898;29;20055;-78
2022/06/28 11:12:19;;;;;;;28.20;7.32;;;28.10;96.70;;;;;;4944012;29;20042;-78
2022/06/28 11:14:50;;;;;;;20.73;5.90;;;28.10;96.70;;;;;;4940928;29;20130;-78
2022/06/28 11:17:22;;;;;;;30.70;6.80;;;28.00;96.70;;;;;;4914795;29;20142;-78
2022/06/28 11:19:53;;;;;;;27.38;6.72;;;27.90;96.70;;;;;;4942816;29;20120;-79
2022/06/28 11:22:24;;;;;;;26.08;6.72;;;27.90;96.70;;;;;;4945062;29;20660;-78
2022/06/28 11:24:54;;;;;;;25.15;6.63;;;28.00;96.70;;;;;;4923887;29;20055;-79
2022/06/28 11:30:32;;;;;;;26.73;6.07;;;28.10;96.70;;;;;;4922736;28;20074;-78
2022/06/28 11:33:00;;;;;;;29.98;7.10;;;28.20;96.70;;;;;;4941110;29;20472;-77
2022/06/28 11:35:30;;;;;;;24.88;6.57;;;28.20;96.70;;;;;;4943310;29;20047;-82
2022/06/28 11:38:00;;;;;;;20.20;6.43;;;28.20;96.70;;;;;;4939717;29;20039;-82
2022/06/28 11:40:38;;;;;;;28.45;6.70;;;28.10;96.70;;;;;;4944034;29;20055;-82
2022/06/28 11:43:10;;;;;;;25.77;7.20;;;28.00;96.70;;;;;;4945473;28;20048;-81
2022/06/28 11:45:41;;;;;;;22.10;7.15;;;27.90;96.70;;;;;;4945064;28;20043;-81
2022/06/28 11:48:12;;;;;;;25.40;6.55;;;27.90;96.70;;;;;;4940330;29;20401;-81
2022/06/28 11:50:42;;;;;;;25.52;6.55;;;27.80;96.70;;;;;;4944427;29;20091;-80
2022/06/28 11:53:12;;;;;;;26.95;6.97;;;27.80;96.70;;;;;;4937221;29;20046;-82
2022/06/28 11:55:41;;;;;;;29.63;7.13;;;27.80;96.70;;;;;;4938180;29;20062;-81
2022/06/28 11:58:14;;;;;;;26.48;6.95;;;27.70;96.70;;;;;;4946307;29;20051;-80
2022/06/28 12:01:01;;;;;;;27.23;6.03;;;27.60;96.70;;;;;;4950942;28;20047;-81
2022/06/28 12:03:29;;;;;;;13.32;3.28;;;27.50;96.70;;;;;;4929588;29;20040;-80
2022/06/28 12:05:59;;;;;;;18.85;4.78;;;28.00;96.70;;;;;;4940748;29;20047;-81
2022/06/28 12:08:49;;;;;;;15.60;4.10;;;28.10;96.70;;;;;;4942752;29;20075;-81
2022/06/28 12:11:28;;;;;;;12.43;4.25;;;28.00;96.70;;;;;;4941821;29;20130;-80
2022/06/28 12:18:12;;;;;;;14.73;4.43;;;27.90;96.70;;;;;;4941257;29;20484;-77
2022/06/28 12:20:55;;;;;;;13.65;4.22;;;27.80;96.70;;;;;;4925330;29;20059;-81
2022/06/28 12:23:23;;;;;;;18.17;4.97;;;27.80;96.70;;;;;;4944056;29;20084;-81
2022/06/28 12:25:59;;;;;;;17.23;4.47;;;27.80;96.70;;;;;;4946109;28;20118;-82
2022/06/28 12:28:27;;;;;;;20.38;4.57;;;27.80;96.70;;;;;;4947839;29;20091;-82
2022/06/28 12:30:55;;;;;;;19.50;4.88;;;27.80;96.70;;;;;;4946940;29;20051;-80
2022/06/28 12:33:25;;;;;;;22.38;5.53;;;27.80;96.70;;;;;;4930839;29;20564;-81
2022/06/28 12:35:53;;;;;;;23.52;6.28;;;27.70;96.70;;;;;;4945512;29;20378;-81
2022/06/28 12:38:21;;;;;;;18.55;5.80;;;27.60;96.70;;;;;;4942154;29;20054;-80
2022/06/28 12:40:49;;;;;;;18.35;5.72;;;27.70;96.70;;;;;;4943510;29;20062;-79
2022/06/28 12:43:17;;;;;;;19.02;5.45;;;27.80;96.70;;;;;;4945588;28;20069;-81
2022/06/28 12:45:48;;;;;;;17.48;5.10;;;27.90;96.70;;;;;;4928623;29;20629;-81
2022/06/28 12:48:16;;;;;;;15.90;4.55;;;28.00;96.70;;;;;;4937237;29;20471;-81
2022/06/28 12:50:54;;;;;;;12.50;4.68;;;28.10;96.70;;;;;;4940849;29;20055;-81
2022/06/28 12:53:22;;;;;;;15.60;4.30;;;28.10;96.70;;;;;;4941176;29;20126;-81
2022/06/28 12:55:50;;;;;;;19.08;5.30;;;28.10;96.70;;;;;;4945309;28;20043;-81
2022/06/28 12:58:21;;;;;;;17.52;4.60;;;28.20;96.70;;;;;;4936763;28;20044;-81
2022/06/28 13:00:49;;;;;;;14.57;4.43;;;28.20;96.70;;;;;;4942617;29;20134;-80
2022/06/28 13:03:17;;;;;;;15.85;4.30;;;28.30;96.70;;;;;;4946111;28;20040;-81
2022/06/28 13:05:47;;;;;;;17.75;5.15;;;28.40;96.70;;;;;;4942392;29;20052;-80
2022/06/28 13:08:16;;;;;;;20.60;4.72;;;28.60;96.70;;;;;;4943214;29;20046;-81
2022/06/28 13:10:44;;;;;;;19.13;4.68;;;28.70;96.70;;;;;;4946442;28;20047;-81
2022/06/28 13:13:12;;;;;;;16.75;4.63;;;28.70;96.70;;;;;;4944696;29;20047;-81
2022/06/28 13:15:40;;;;;;;14.13;4.03;;;28.80;96.70;;;;;;4947481;28;20043;-81
2022/06/28 13:18:09;;;;;;;17.85;4.60;;;28.80;96.70;;;;;;4934674;29;20047;-82
2022/06/28 13:20:38;;;;;;;15.82;4.40;;;28.80;96.70;;;;;;4947094;29;20730;-77
2022/06/28 13:23:09;;;;;;;15.95;4.32;;;28.90;96.70;;;;;;4938883;28;20592;-77